sensor_id;sensor_type;location;lat;lon;timestamp;P1;durP1;ratioP1;P2;durP2;ratioP2
46651;SDS011;32377;52.182;5.398;2022-09-09T00:04:03;3.63;;;2.00;;
46651;SDS011;32377;52.182;5.398;2022-09-09T00:07:01;4.82;;;1.88;;
46651;SDS011;32377;52.182;5.398;2022-09-09T00:12:12;6.22;;;1.80;;
46651;SDS011;32377;52.182;5.398;2022-09-09T00:15:13;3.08;;;1.65;;
46651;SDS011;32377;52.182;5.398;2022-09-09T00:17:48;7.60;;;2.15;;
46651;SDS011;32377;52.182;5.398;2022-09-09T00:20:25;3.28;;;1.80;;
46651;SDS011;32377;52.182;5.398;2022-09-09T00:23:19;2.97;;;1.88;;
46651;SDS011;32377;52.182;5.398;2022-09-09T00:26:02;4.00;;;1.85;;
46651;SDS011;32377;52.182;5.398;2022-09-09T00:28:41;3.65;;;1.98;;
46651;SDS011;32377;52.182;5.398;2022-09-09T00:31:20;3.42;;;1.92;;
46651;SDS011;32377;52.182;5.398;2022-09-09T00:33:53;3.67;;;2.45;;
46651;SDS011;32377;52.182;5.398;2022-09-09T00:36:21;4.18;;;2.40;;
46651;SDS011;32377;52.182;5.398;2022-09-09T00:38:56;2.72;;;1.85;;
46651;SDS011;32377;52.182;5.398;2022-09-09T00:44:31;8.68;;;2.60;;
46651;SDS011;32377;52.182;5.398;2022-09-09T00:55:26;6.28;;;3.08;;
46651;SDS011;32377;52.182;5.398;2022-09-09T00:58:02;3.90;;;3.15;;
46651;SDS011;32377;52.182;5.398;2022-09-09T01:00:29;6.80;;;3.25;;
46651;SDS011;32377;52.182;5.398;2022-09-09T01:08:06;5.38;;;3.42;;
46651;SDS011;32377;52.182;5.398;2022-09-09T01:10:51;6.35;;;3.72;;
46651;SDS011;32377;52.182;5.398;2022-09-09T01:13:25;6.28;;;3.80;;
46651;SDS011;32377;52.182;5.398;2022-09-09T01:15:56;5.43;;;3.70;;
46651;SDS011;32377;52.182;5.398;2022-09-09T01:19:00;6.50;;;3.88;;
46651;SDS011;32377;52.182;5.398;2022-09-09T01:21:22;8.48;;;4.40;;
46651;SDS011;32377;52.182;5.398;2022-09-09T01:26:48;6.65;;;4.10;;
46651;SDS011;32377;52.182;5.398;2022-09-09T01:29:17;7.78;;;3.45;;
46651;SDS011;32377;52.182;5.398;2022-09-09T01:31:56;6.07;;;3.95;;
46651;SDS011;32377;52.182;5.398;2022-09-09T01:34:33;7.68;;;4.13;;
46651;SDS011;32377;52.182;5.398;2022-09-09T01:37:07;8.85;;;3.95;;
46651;SDS011;32377;52.182;5.398;2022-09-09T01:39:35;7.45;;;4.28;;
46651;SDS011;32377;52.182;5.398;2022-09-09T01:42:03;8.38;;;4.00;;
46651;SDS011;32377;52.182;5.398;2022-09-09T01:44:31;9.52;;;4.00;;
46651;SDS011;32377;52.182;5.398;2022-09-09T01:46:57;8.35;;;4.43;;
46651;SDS011;32377;52.182;5.398;2022-09-09T01:49:23;9.60;;;4.40;;
46651;SDS011;32377;52.182;5.398;2022-09-09T01:51:49;6.25;;;4.65;;
46651;SDS011;32377;52.182;5.398;2022-09-09T01:54:18;10.20;;;4.78;;
46651;SDS011;32377;52.182;5.398;2022-09-09T01:59:17;9.23;;;4.72;;
46651;SDS011;32377;52.182;5.398;2022-09-09T02:04:45;12.63;;;4.93;;
46651;SDS011;32377;52.182;5.398;2022-09-09T02:07:20;8.80;;;5.68;;
46651;SDS011;32377;52.182;5.398;2022-09-09T02:09:57;10.00;;;5.10;;
46651;SDS011;32377;52.182;5.398;2022-09-09T02:12:35;11.45;;;5.88;;
46651;SDS011;32377;52.182;5.398;2022-09-09T02:15:05;7.82;;;4.97;;
46651;SDS011;32377;52.182;5.398;2022-09-09T02:17:38;8.35;;;5.57;;
46651;SDS011;32377;52.182;5.398;2022-09-09T02:20:08;11.60;;;6.30;;
46651;SDS011;32377;52.182;5.398;2022-09-09T02:22:37;12.90;;;5.72;;
46651;SDS011;32377;52.182;5.398;2022-09-09T02:25:05;13.13;;;7.07;;
46651;SDS011;32377;52.182;5.398;2022-09-09T02:27:33;12.57;;;7.18;;
46651;SDS011;32377;52.182;5.398;2022-09-09T02:30:00;11.02;;;6.45;;
46651;SDS011;32377;52.182;5.398;2022-09-09T02:32:27;12.70;;;7.18;;
46651;SDS011;32377;52.182;5.398;2022-09-09T02:34:57;11.77;;;6.88;;
46651;SDS011;32377;52.182;5.398;2022-09-09T02:37:32;9.85;;;7.35;;
46651;SDS011;32377;52.182;5.398;2022-09-09T02:40:06;10.68;;;6.35;;
46651;SDS011;32377;52.182;5.398;2022-09-09T02:42:44;15.82;;;6.93;;
46651;SDS011;32377;52.182;5.398;2022-09-09T02:45:14;11.23;;;7.25;;
46651;SDS011;32377;52.182;5.398;2022-09-09T02:50:13;15.52;;;6.45;;
46651;SDS011;32377;52.182;5.398;2022-09-09T02:55:50;9.57;;;7.05;;
46651;SDS011;32377;52.182;5.398;2022-09-09T02:58:23;14.45;;;8.00;;
46651;SDS011;32377;52.182;5.398;2022-09-09T03:00:49;11.60;;;7.75;;
46651;SDS011;32377;52.182;5.398;2022-09-09T03:03:16;10.13;;;7.32;;
46651;SDS011;32377;52.182;5.398;2022-09-09T03:05:43;16.83;;;8.02;;
46651;SDS011;32377;52.182;5.398;2022-09-09T03:08:09;13.10;;;7.35;;
46651;SDS011;32377;52.182;5.398;2022-09-09T03:10:35;12.23;;;7.40;;
46651;SDS011;32377;52.182;5.398;2022-09-09T03:13:02;14.07;;;7.70;;
46651;SDS011;32377;52.182;5.398;2022-09-09T03:15:30;10.20;;;7.95;;
46651;SDS011;32377;52.182;5.398;2022-09-09T03:17:57;13.52;;;7.30;;
46651;SDS011;32377;52.182;5.398;2022-09-09T03:20:24;12.48;;;8.20;;
46651;SDS011;32377;52.182;5.398;2022-09-09T03:22:51;15.27;;;8.45;;
46651;SDS011;32377;52.182;5.398;2022-09-09T03:25:17;15.70;;;8.95;;
46651;SDS011;32377;52.182;5.398;2022-09-09T03:27:43;15.13;;;8.27;;
46651;SDS011;32377;52.182;5.398;2022-09-09T03:30:09;16.00;;;9.15;;
46651;SDS011;32377;52.182;5.398;2022-09-09T03:32:35;15.88;;;8.77;;
46651;SDS011;32377;52.182;5.398;2022-09-09T03:35:00;15.98;;;9.02;;
46651;SDS011;32377;52.182;5.398;2022-09-09T03:37:26;15.75;;;8.75;;
46651;SDS011;32377;52.182;5.398;2022-09-09T03:39:51;17.48;;;9.68;;
46651;SDS011;32377;52.182;5.398;2022-09-09T03:42:19;13.25;;;8.40;;
46651;SDS011;32377;52.182;5.398;2022-09-09T03:44:45;17.45;;;9.07;;
46651;SDS011;32377;52.182;5.398;2022-09-09T03:47:16;17.15;;;9.35;;
46651;SDS011;32377;52.182;5.398;2022-09-09T03:49:46;14.52;;;9.07;;
46651;SDS011;32377;52.182;5.398;2022-09-09T03:52:13;16.90;;;9.40;;
46651;SDS011;32377;52.182;5.398;2022-09-09T03:54:39;18.30;;;10.23;;
46651;SDS011;32377;52.182;5.398;2022-09-09T03:57:07;15.55;;;10.05;;
46651;SDS011;32377;52.182;5.398;2022-09-09T03:59:36;16.35;;;10.40;;
46651;SDS011;32377;52.182;5.398;2022-09-09T04:02:02;16.48;;;9.57;;
46651;SDS011;32377;52.182;5.398;2022-09-09T04:04:28;14.25;;;9.90;;
46651;SDS011;32377;52.182;5.398;2022-09-09T04:06:54;17.73;;;10.07;;
46651;SDS011;32377;52.182;5.398;2022-09-09T04:09:20;14.20;;;10.07;;
46651;SDS011;32377;52.182;5.398;2022-09-09T04:11:45;17.75;;;10.02;;
46651;SDS011;32377;52.182;5.398;2022-09-09T04:14:11;17.00;;;10.23;;
46651;SDS011;32377;52.182;5.398;2022-09-09T04:16:37;15.80;;;10.27;;
46651;SDS011;32377;52.182;5.398;2022-09-09T04:19:03;16.45;;;9.93;;
46651;SDS011;32377;52.182;5.398;2022-09-09T04:21:31;18.58;;;10.35;;
46651;SDS011;32377;52.182;5.398;2022-09-09T04:23:57;17.23;;;10.43;;
46651;SDS011;32377;52.182;5.398;2022-09-09T04:26:23;25.27;;;11.13;;
46651;SDS011;32377;52.182;5.398;2022-09-09T04:28:48;17.88;;;10.43;;
46651;SDS011;32377;52.182;5.398;2022-09-09T04:31:15;20.52;;;11.35;;
46651;SDS011;32377;52.182;5.398;2022-09-09T04:33:43;17.02;;;10.68;;
46651;SDS011;32377;52.182;5.398;2022-09-09T04:36:09;19.42;;;10.63;;
46651;SDS011;32377;52.182;5.398;2022-09-09T04:38:35;18.40;;;10.13;;
46651;SDS011;32377;52.182;5.398;2022-09-09T04:41:01;17.50;;;10.75;;
46651;SDS011;32377;52.182;5.398;2022-09-09T04:43:26;14.45;;;9.90;;
46651;SDS011;32377;52.182;5.398;2022-09-09T04:45:52;15.80;;;10.23;;
46651;SDS011;32377;52.182;5.398;2022-09-09T04:48:19;23.30;;;10.20;;
46651;SDS011;32377;52.182;5.398;2022-09-09T04:50:58;15.15;;;9.30;;
46651;SDS011;32377;52.182;5.398;2022-09-09T04:53:35;17.17;;;9.68;;
46651;SDS011;32377;52.182;5.398;2022-09-09T04:56:04;14.68;;;9.75;;
46651;SDS011;32377;52.182;5.398;2022-09-09T04:58:31;12.65;;;8.88;;
46651;SDS011;32377;52.182;5.398;2022-09-09T05:01:10;13.95;;;8.77;;
46651;SDS011;32377;52.182;5.398;2022-09-09T05:03:38;14.18;;;8.00;;
46651;SDS011;32377;52.182;5.398;2022-09-09T05:06:08;13.80;;;9.20;;
46651;SDS011;32377;52.182;5.398;2022-09-09T05:08:38;13.68;;;8.27;;
46651;SDS011;32377;52.182;5.398;2022-09-09T05:14:03;19.40;;;8.50;;
46651;SDS011;32377;52.182;5.398;2022-09-09T05:16:29;16.42;;;8.00;;
46651;SDS011;32377;52.182;5.398;2022-09-09T05:18:55;16.73;;;8.27;;
46651;SDS011;32377;52.182;5.398;2022-09-09T05:21:22;12.35;;;7.53;;
46651;SDS011;32377;52.182;5.398;2022-09-09T05:23:50;12.38;;;7.78;;
46651;SDS011;32377;52.182;5.398;2022-09-09T05:26:17;16.17;;;8.23;;
46651;SDS011;32377;52.182;5.398;2022-09-09T05:28:45;13.88;;;8.27;;
46651;SDS011;32377;52.182;5.398;2022-09-09T05:31:11;15.70;;;8.05;;
46651;SDS011;32377;52.182;5.398;2022-09-09T05:33:37;12.57;;;7.50;;
46651;SDS011;32377;52.182;5.398;2022-09-09T05:36:08;18.52;;;7.97;;
46651;SDS011;32377;52.182;5.398;2022-09-09T05:38:41;13.60;;;7.22;;
46651;SDS011;32377;52.182;5.398;2022-09-09T05:41:08;12.25;;;6.63;;
46651;SDS011;32377;52.182;5.398;2022-09-09T05:43:36;18.45;;;6.88;;
46651;SDS011;32377;52.182;5.398;2022-09-09T05:46:06;12.73;;;7.07;;
46651;SDS011;32377;52.182;5.398;2022-09-09T05:48:34;10.23;;;6.90;;
46651;SDS011;32377;52.182;5.398;2022-09-09T05:51:02;13.75;;;7.43;;
46651;SDS011;32377;52.182;5.398;2022-09-09T05:53:29;14.65;;;6.75;;
46651;SDS011;32377;52.182;5.398;2022-09-09T05:56:18;18.58;;;7.35;;
46651;SDS011;32377;52.182;5.398;2022-09-09T05:58:48;12.73;;;6.72;;
46651;SDS011;32377;52.182;5.398;2022-09-09T06:01:24;15.10;;;7.20;;
46651;SDS011;32377;52.182;5.398;2022-09-09T06:03:51;13.70;;;6.97;;
46651;SDS011;32377;52.182;5.398;2022-09-09T06:06:21;18.13;;;7.35;;
46651;SDS011;32377;52.182;5.398;2022-09-09T06:08:51;19.52;;;6.80;;
46651;SDS011;32377;52.182;5.398;2022-09-09T06:11:22;16.70;;;7.30;;
46651;SDS011;32377;52.182;5.398;2022-09-09T06:13:51;18.30;;;6.97;;
46651;SDS011;32377;52.182;5.398;2022-09-09T06:16:20;25.50;;;7.85;;
46651;SDS011;32377;52.182;5.398;2022-09-09T06:18:48;17.52;;;7.43;;
46651;SDS011;32377;52.182;5.398;2022-09-09T06:21:16;13.88;;;7.15;;
46651;SDS011;32377;52.182;5.398;2022-09-09T06:23:44;16.73;;;7.50;;
46651;SDS011;32377;52.182;5.398;2022-09-09T06:26:11;18.00;;;7.63;;
46651;SDS011;32377;52.182;5.398;2022-09-09T06:28:38;19.00;;;6.60;;
46651;SDS011;32377;52.182;5.398;2022-09-09T06:31:05;19.33;;;6.72;;
46651;SDS011;32377;52.182;5.398;2022-09-09T06:33:34;15.50;;;6.93;;
46651;SDS011;32377;52.182;5.398;2022-09-09T06:36:04;13.82;;;7.22;;
46651;SDS011;32377;52.182;5.398;2022-09-09T06:38:30;15.57;;;7.03;;
46651;SDS011;32377;52.182;5.398;2022-09-09T06:40:57;18.40;;;6.80;;
46651;SDS011;32377;52.182;5.398;2022-09-09T06:43:24;18.50;;;6.40;;
46651;SDS011;32377;52.182;5.398;2022-09-09T06:48:23;14.07;;;5.80;;
46651;SDS011;32377;52.182;5.398;2022-09-09T06:50:51;14.15;;;5.45;;
46651;SDS011;32377;52.182;5.398;2022-09-09T06:53:38;14.43;;;5.28;;
46651;SDS011;32377;52.182;5.398;2022-09-09T06:56:26;14.02;;;5.38;;
46651;SDS011;32377;52.182;5.398;2022-09-09T06:58:55;15.38;;;4.82;;
46651;SDS011;32377;52.182;5.398;2022-09-09T07:01:26;15.35;;;4.95;;
46651;SDS011;32377;52.182;5.398;2022-09-09T07:03:54;7.85;;;3.95;;
46651;SDS011;32377;52.182;5.398;2022-09-09T07:06:22;14.63;;;4.75;;
46651;SDS011;32377;52.182;5.398;2022-09-09T07:08:59;11.20;;;3.90;;
46651;SDS011;32377;52.182;5.398;2022-09-09T07:11:27;13.05;;;3.97;;
46651;SDS011;32377;52.182;5.398;2022-09-09T07:13:55;10.18;;;3.83;;
46651;SDS011;32377;52.182;5.398;2022-09-09T07:16:22;13.15;;;3.72;;
46651;SDS011;32377;52.182;5.398;2022-09-09T07:18:49;13.45;;;4.07;;
46651;SDS011;32377;52.182;5.398;2022-09-09T07:21:15;12.85;;;4.13;;
46651;SDS011;32377;52.182;5.398;2022-09-09T07:23:42;12.60;;;4.03;;
46651;SDS011;32377;52.182;5.398;2022-09-09T07:26:12;11.23;;;4.18;;
46651;SDS011;32377;52.182;5.398;2022-09-09T07:28:40;15.45;;;4.07;;
46651;SDS011;32377;52.182;5.398;2022-09-09T07:31:07;12.63;;;4.38;;
46651;SDS011;32377;52.182;5.398;2022-09-09T07:33:38;18.15;;;4.00;;
46651;SDS011;32377;52.182;5.398;2022-09-09T07:36:16;10.68;;;4.05;;
46651;SDS011;32377;52.182;5.398;2022-09-09T07:38:50;14.77;;;4.47;;
46651;SDS011;32377;52.182;5.398;2022-09-09T07:41:21;13.23;;;4.13;;
46651;SDS011;32377;52.182;5.398;2022-09-09T07:43:49;15.05;;;3.90;;
46651;SDS011;32377;52.182;5.398;2022-09-09T07:46:16;13.82;;;3.45;;
46651;SDS011;32377;52.182;5.398;2022-09-09T07:48:48;11.50;;;3.75;;
46651;SDS011;32377;52.182;5.398;2022-09-09T07:51:28;14.27;;;3.78;;
46651;SDS011;32377;52.182;5.398;2022-09-09T07:53:56;10.00;;;3.22;;
46651;SDS011;32377;52.182;5.398;2022-09-09T07:56:24;12.60;;;3.60;;
46651;SDS011;32377;52.182;5.398;2022-09-09T07:58:51;11.82;;;3.45;;
46651;SDS011;32377;52.182;5.398;2022-09-09T08:01:22;10.05;;;3.05;;
46651;SDS011;32377;52.182;5.398;2022-09-09T08:03:54;11.02;;;3.20;;
46651;SDS011;32377;52.182;5.398;2022-09-09T08:06:24;16.05;;;3.60;;
46651;SDS011;32377;52.182;5.398;2022-09-09T08:08:51;11.35;;;2.95;;
46651;SDS011;32377;52.182;5.398;2022-09-09T08:11:17;17.40;;;3.40;;
46651;SDS011;32377;52.182;5.398;2022-09-09T08:13:43;11.00;;;3.08;;
46651;SDS011;32377;52.182;5.398;2022-09-09T08:16:10;10.55;;;3.10;;
46651;SDS011;32377;52.182;5.398;2022-09-09T08:18:46;11.55;;;3.00;;
46651;SDS011;32377;52.182;5.398;2022-09-09T08:21:13;12.40;;;3.85;;
46651;SDS011;32377;52.182;5.398;2022-09-09T08:23:42;11.95;;;3.45;;
46651;SDS011;32377;52.182;5.398;2022-09-09T08:26:17;12.55;;;3.47;;
46651;SDS011;32377;52.182;5.398;2022-09-09T08:28:48;11.18;;;3.00;;
46651;SDS011;32377;52.182;5.398;2022-09-09T08:31:17;11.40;;;3.17;;
46651;SDS011;32377;52.182;5.398;2022-09-09T08:33:45;11.30;;;3.35;;
46651;SDS011;32377;52.182;5.398;2022-09-09T08:36:12;8.95;;;2.92;;
46651;SDS011;32377;52.182;5.398;2022-09-09T08:38:40;6.38;;;2.70;;
46651;SDS011;32377;52.182;5.398;2022-09-09T08:41:14;15.35;;;3.25;;
46651;SDS011;32377;52.182;5.398;2022-09-09T08:44:00;10.77;;;3.22;;
46651;SDS011;32377;52.182;5.398;2022-09-09T08:46:42;14.40;;;3.00;;
46651;SDS011;32377;52.182;5.398;2022-09-09T09:11:26;8.52;;;2.67;;
46651;SDS011;32377;52.182;5.398;2022-09-09T09:13:54;13.75;;;2.92;;
46651;SDS011;32377;52.182;5.398;2022-09-09T09:16:32;10.93;;;2.92;;
46651;SDS011;32377;52.182;5.398;2022-09-09T09:19:01;9.82;;;2.65;;
46651;SDS011;32377;52.182;5.398;2022-09-09T09:23:57;12.98;;;3.28;;
46651;SDS011;32377;52.182;5.398;2022-09-09T09:26:25;13.57;;;3.40;;
46651;SDS011;32377;52.182;5.398;2022-09-09T09:28:56;8.77;;;2.38;;
46651;SDS011;32377;52.182;5.398;2022-09-09T09:31:24;15.10;;;3.33;;
46651;SDS011;32377;52.182;5.398;2022-09-09T09:33:53;12.00;;;3.13;;
46651;SDS011;32377;52.182;5.398;2022-09-09T09:36:21;8.27;;;2.60;;
46651;SDS011;32377;52.182;5.398;2022-09-09T09:38:57;12.02;;;2.97;;
46651;SDS011;32377;52.182;5.398;2022-09-09T09:41:35;44.67;;;5.65;;
46651;SDS011;32377;52.182;5.398;2022-09-09T09:44:03;25.98;;;3.67;;
46651;SDS011;32377;52.182;5.398;2022-09-09T09:46:30;35.53;;;4.63;;
46651;SDS011;32377;52.182;5.398;2022-09-09T09:49:03;13.20;;;2.83;;
46651;SDS011;32377;52.182;5.398;2022-09-09T09:51:31;12.00;;;3.25;;
46651;SDS011;32377;52.182;5.398;2022-09-09T09:54:03;12.65;;;2.80;;
46651;SDS011;32377;52.182;5.398;2022-09-09T09:56:50;10.05;;;2.78;;
46651;SDS011;32377;52.182;5.398;2022-09-09T09:59:23;7.22;;;2.53;;
46651;SDS011;32377;52.182;5.398;2022-09-09T10:01:52;8.60;;;2.80;;
46651;SDS011;32377;52.182;5.398;2022-09-09T10:04:19;12.45;;;3.00;;
46651;SDS011;32377;52.182;5.398;2022-09-09T10:06:48;14.05;;;3.00;;
46651;SDS011;32377;52.182;5.398;2022-09-09T10:09:21;13.43;;;3.30;;
46651;SDS011;32377;52.182;5.398;2022-09-09T10:22:45;12.88;;;3.03;;
46651;SDS011;32377;52.182;5.398;2022-09-09T10:25:19;13.15;;;3.17;;
46651;SDS011;32377;52.182;5.398;2022-09-09T10:28:20;16.67;;;3.05;;
46651;SDS011;32377;52.182;5.398;2022-09-09T10:31:34;10.63;;;3.03;;
46651;SDS011;32377;52.182;5.398;2022-09-09T10:36:31;10.45;;;2.58;;
46651;SDS011;32377;52.182;5.398;2022-09-09T10:39:23;16.00;;;3.53;;
46651;SDS011;32377;52.182;5.398;2022-09-09T10:41:56;15.32;;;3.50;;
46651;SDS011;32377;52.182;5.398;2022-09-09T10:44:33;13.63;;;3.70;;
46651;SDS011;32377;52.182;5.398;2022-09-09T10:47:29;8.82;;;3.17;;
46651;SDS011;32377;52.182;5.398;2022-09-09T10:52:29;14.77;;;2.92;;
46651;SDS011;32377;52.182;5.398;2022-09-09T10:55:33;11.07;;;3.00;;
46651;SDS011;32377;52.182;5.398;2022-09-09T11:00:38;7.50;;;2.38;;
46651;SDS011;32377;52.182;5.398;2022-09-09T11:03:21;12.45;;;2.80;;
46651;SDS011;32377;52.182;5.398;2022-09-09T11:05:51;9.07;;;2.78;;
46651;SDS011;32377;52.182;5.398;2022-09-09T11:08:25;12.55;;;2.95;;
46651;SDS011;32377;52.182;5.398;2022-09-09T11:18:37;9.90;;;3.17;;
46651;SDS011;32377;52.182;5.398;2022-09-09T11:21:07;13.30;;;3.08;;
46651;SDS011;32377;52.182;5.398;2022-09-09T11:23:43;9.23;;;2.55;;
46651;SDS011;32377;52.182;5.398;2022-09-09T11:26:45;10.13;;;2.90;;
46651;SDS011;32377;52.182;5.398;2022-09-09T11:29:28;8.90;;;3.00;;
46651;SDS011;32377;52.182;5.398;2022-09-09T11:35:11;10.43;;;3.08;;
46651;SDS011;32377;52.182;5.398;2022-09-09T11:37:54;8.27;;;2.95;;
46651;SDS011;32377;52.182;5.398;2022-09-09T11:40:27;13.73;;;3.05;;
46651;SDS011;32377;52.182;5.398;2022-09-09T11:45:53;9.87;;;2.90;;
46651;SDS011;32377;52.182;5.398;2022-09-09T11:48:28;9.77;;;2.63;;
46651;SDS011;32377;52.182;5.398;2022-09-09T11:51:13;8.15;;;3.10;;
46651;SDS011;32377;52.182;5.398;2022-09-09T11:53:50;10.13;;;2.92;;
46651;SDS011;32377;52.182;5.398;2022-09-09T11:56:26;7.85;;;2.40;;
46651;SDS011;32377;52.182;5.398;2022-09-09T11:58:56;8.48;;;2.25;;
46651;SDS011;32377;52.182;5.398;2022-09-09T12:01:29;7.13;;;2.97;;
46651;SDS011;32377;52.182;5.398;2022-09-09T12:09:43;10.05;;;2.88;;
46651;SDS011;32377;52.182;5.398;2022-09-09T12:12:29;8.45;;;2.63;;
46651;SDS011;32377;52.182;5.398;2022-09-09T12:15:02;8.88;;;3.05;;
46651;SDS011;32377;52.182;5.398;2022-09-09T12:17:28;9.82;;;2.70;;
46651;SDS011;32377;52.182;5.398;2022-09-09T12:27:50;7.45;;;2.45;;
46651;SDS011;32377;52.182;5.398;2022-09-09T12:33:39;9.07;;;3.20;;
46651;SDS011;32377;52.182;5.398;2022-09-09T12:36:10;7.80;;;3.25;;
46651;SDS011;32377;52.182;5.398;2022-09-09T12:38:39;9.73;;;3.08;;
46651;SDS011;32377;52.182;5.398;2022-09-09T12:41:17;10.43;;;3.55;;
46651;SDS011;32377;52.182;5.398;2022-09-09T12:43:48;10.15;;;4.10;;
46651;SDS011;32377;52.182;5.398;2022-09-09T12:51:59;9.90;;;4.47;;
46651;SDS011;32377;52.182;5.398;2022-09-09T12:54:27;10.70;;;4.15;;
46651;SDS011;32377;52.182;5.398;2022-09-09T12:56:53;7.53;;;3.10;;
46651;SDS011;32377;52.182;5.398;2022-09-09T12:59:26;11.63;;;3.78;;
46651;SDS011;32377;52.182;5.398;2022-09-09T13:02:00;11.15;;;3.95;;
46651;SDS011;32377;52.182;5.398;2022-09-09T13:04:25;9.77;;;3.40;;
46651;SDS011;32377;52.182;5.398;2022-09-09T13:06:51;7.43;;;3.00;;
46651;SDS011;32377;52.182;5.398;2022-09-09T13:09:17;11.38;;;3.15;;
46651;SDS011;32377;52.182;5.398;2022-09-09T13:11:45;6.68;;;2.63;;
46651;SDS011;32377;52.182;5.398;2022-09-09T13:16:57;8.30;;;2.95;;
46651;SDS011;32377;52.182;5.398;2022-09-09T13:19:24;8.48;;;2.90;;
46651;SDS011;32377;52.182;5.398;2022-09-09T13:21:52;7.25;;;2.95;;
46651;SDS011;32377;52.182;5.398;2022-09-09T13:26:53;7.00;;;2.60;;
46651;SDS011;32377;52.182;5.398;2022-09-09T13:29:31;11.80;;;2.90;;
46651;SDS011;32377;52.182;5.398;2022-09-09T13:32:30;5.13;;;2.20;;
46651;SDS011;32377;52.182;5.398;2022-09-09T13:34:52;8.02;;;2.63;;
46651;SDS011;32377;52.182;5.398;2022-09-09T13:37:36;12.50;;;3.13;;
46651;SDS011;32377;52.182;5.398;2022-09-09T13:40:04;7.32;;;2.60;;
46651;SDS011;32377;52.182;5.398;2022-09-09T13:42:32;8.48;;;2.67;;
46651;SDS011;32377;52.182;5.398;2022-09-09T13:45:01;6.07;;;2.42;;
46651;SDS011;32377;52.182;5.398;2022-09-09T13:47:32;12.02;;;3.28;;
46651;SDS011;32377;52.182;5.398;2022-09-09T13:52:58;6.15;;;3.55;;
46651;SDS011;32377;52.182;5.398;2022-09-09T13:55:25;10.95;;;3.45;;
46651;SDS011;32377;52.182;5.398;2022-09-09T13:58:02;7.70;;;3.22;;
46651;SDS011;32377;52.182;5.398;2022-09-09T14:00:30;9.43;;;3.60;;
46651;SDS011;32377;52.182;5.398;2022-09-09T14:02:58;5.35;;;3.00;;
46651;SDS011;32377;52.182;5.398;2022-09-09T14:05:26;8.25;;;3.15;;
46651;SDS011;32377;52.182;5.398;2022-09-09T14:07:52;8.43;;;3.20;;
46651;SDS011;32377;52.182;5.398;2022-09-09T14:10:17;8.23;;;3.00;;
46651;SDS011;32377;52.182;5.398;2022-09-09T14:12:43;12.63;;;3.35;;
46651;SDS011;32377;52.182;5.398;2022-09-09T14:15:09;9.63;;;2.83;;
46651;SDS011;32377;52.182;5.398;2022-09-09T14:17:36;7.00;;;2.83;;
46651;SDS011;32377;52.182;5.398;2022-09-09T14:20:06;9.60;;;3.33;;
46651;SDS011;32377;52.182;5.398;2022-09-09T14:22:34;9.57;;;3.17;;
46651;SDS011;32377;52.182;5.398;2022-09-09T14:25:00;10.07;;;3.25;;
46651;SDS011;32377;52.182;5.398;2022-09-09T14:27:27;7.43;;;2.67;;
46651;SDS011;32377;52.182;5.398;2022-09-09T14:29:53;8.13;;;3.25;;
46651;SDS011;32377;52.182;5.398;2022-09-09T14:32:19;11.63;;;3.80;;
46651;SDS011;32377;52.182;5.398;2022-09-09T14:34:46;5.20;;;2.95;;
46651;SDS011;32377;52.182;5.398;2022-09-09T14:37:14;8.23;;;3.40;;
46651;SDS011;32377;52.182;5.398;2022-09-09T14:39:41;7.40;;;3.03;;
46651;SDS011;32377;52.182;5.398;2022-09-09T14:42:09;5.55;;;3.53;;
46651;SDS011;32377;52.182;5.398;2022-09-09T14:44:38;9.85;;;3.40;;
46651;SDS011;32377;52.182;5.398;2022-09-09T14:47:07;9.18;;;3.78;;
46651;SDS011;32377;52.182;5.398;2022-09-09T14:49:33;13.20;;;3.95;;
46651;SDS011;32377;52.182;5.398;2022-09-09T14:51:59;6.97;;;3.63;;
46651;SDS011;32377;52.182;5.398;2022-09-09T14:54:25;8.65;;;3.47;;
46651;SDS011;32377;52.182;5.398;2022-09-09T14:56:51;12.65;;;4.10;;
46651;SDS011;32377;52.182;5.398;2022-09-09T14:59:16;8.93;;;4.57;;
46651;SDS011;32377;52.182;5.398;2022-09-09T15:01:42;6.72;;;3.75;;
46651;SDS011;32377;52.182;5.398;2022-09-09T15:04:10;11.68;;;4.47;;
46651;SDS011;32377;52.182;5.398;2022-09-09T15:06:39;10.02;;;4.00;;
46651;SDS011;32377;52.182;5.398;2022-09-09T15:09:06;7.70;;;4.00;;
46651;SDS011;32377;52.182;5.398;2022-09-09T15:11:35;9.70;;;4.45;;
46651;SDS011;32377;52.182;5.398;2022-09-09T15:14:03;9.00;;;4.30;;
46651;SDS011;32377;52.182;5.398;2022-09-09T15:16:29;8.73;;;3.90;;
46651;SDS011;32377;52.182;5.398;2022-09-09T15:18:57;7.90;;;4.72;;
46651;SDS011;32377;52.182;5.398;2022-09-09T15:21:25;6.57;;;3.05;;
46651;SDS011;32377;52.182;5.398;2022-09-09T15:23:53;6.82;;;3.28;;
46651;SDS011;32377;52.182;5.398;2022-09-09T15:26:19;7.68;;;3.28;;
46651;SDS011;32377;52.182;5.398;2022-09-09T15:28:46;7.60;;;2.72;;
46651;SDS011;32377;52.182;5.398;2022-09-09T15:31:13;8.80;;;3.00;;
46651;SDS011;32377;52.182;5.398;2022-09-09T15:33:46;6.72;;;2.50;;
46651;SDS011;32377;52.182;5.398;2022-09-09T15:36:20;6.75;;;3.67;;
46651;SDS011;32377;52.182;5.398;2022-09-09T15:38:47;7.37;;;3.27;;
46651;SDS011;32377;52.182;5.398;2022-09-09T15:41:13;12.85;;;5.47;;
46651;SDS011;32377;52.182;5.398;2022-09-09T15:43:46;7.32;;;3.20;;
46651;SDS011;32377;52.182;5.398;2022-09-09T15:46:31;6.13;;;3.20;;
46651;SDS011;32377;52.182;5.398;2022-09-09T15:49:05;6.82;;;2.45;;
46651;SDS011;32377;52.182;5.398;2022-09-09T15:51:51;9.95;;;3.40;;
46651;SDS011;32377;52.182;5.398;2022-09-09T15:54:18;9.60;;;3.40;;
46651;SDS011;32377;52.182;5.398;2022-09-09T15:56:52;8.00;;;2.70;;
46651;SDS011;32377;52.182;5.398;2022-09-09T15:59:21;3.75;;;1.70;;
46651;SDS011;32377;52.182;5.398;2022-09-09T16:01:47;5.10;;;2.38;;
46651;SDS011;32377;52.182;5.398;2022-09-09T16:04:16;6.82;;;2.22;;
46651;SDS011;32377;52.182;5.398;2022-09-09T16:09:21;6.03;;;2.10;;
46651;SDS011;32377;52.182;5.398;2022-09-09T16:11:47;7.57;;;2.78;;
46651;SDS011;32377;52.182;5.398;2022-09-09T16:14:13;6.18;;;3.03;;
46651;SDS011;32377;52.182;5.398;2022-09-09T16:16:40;6.40;;;2.53;;
46651;SDS011;32377;52.182;5.398;2022-09-09T16:19:07;3.65;;;2.33;;
46651;SDS011;32377;52.182;5.398;2022-09-09T16:21:38;4.85;;;2.28;;
46651;SDS011;32377;52.182;5.398;2022-09-09T16:24:07;5.60;;;2.38;;
46651;SDS011;32377;52.182;5.398;2022-09-09T16:26:35;7.05;;;2.42;;
46651;SDS011;32377;52.182;5.398;2022-09-09T16:29:02;6.72;;;2.38;;
46651;SDS011;32377;52.182;5.398;2022-09-09T16:31:28;3.70;;;1.92;;
46651;SDS011;32377;52.182;5.398;2022-09-09T16:33:56;4.65;;;1.80;;
46651;SDS011;32377;52.182;5.398;2022-09-09T16:36:24;5.13;;;1.88;;
46651;SDS011;32377;52.182;5.398;2022-09-09T16:38:52;4.50;;;1.98;;
46651;SDS011;32377;52.182;5.398;2022-09-09T16:41:19;5.25;;;1.85;;
46651;SDS011;32377;52.182;5.398;2022-09-09T16:43:45;4.60;;;2.38;;
46651;SDS011;32377;52.182;5.398;2022-09-09T16:46:18;4.15;;;1.83;;
46651;SDS011;32377;52.182;5.398;2022-09-09T16:48:45;8.90;;;2.42;;
46651;SDS011;32377;52.182;5.398;2022-09-09T16:51:15;4.97;;;2.40;;
46651;SDS011;32377;52.182;5.398;2022-09-09T16:53:42;4.13;;;2.40;;
46651;SDS011;32377;52.182;5.398;2022-09-09T16:56:10;5.45;;;2.20;;
46651;SDS011;32377;52.182;5.398;2022-09-09T16:59:03;4.82;;;2.20;;
46651;SDS011;32377;52.182;5.398;2022-09-09T17:01:32;3.80;;;2.33;;
46651;SDS011;32377;52.182;5.398;2022-09-09T17:04:02;5.22;;;2.22;;
46651;SDS011;32377;52.182;5.398;2022-09-09T17:06:30;5.18;;;2.58;;
46651;SDS011;32377;52.182;5.398;2022-09-09T17:09:00;7.05;;;2.58;;
46651;SDS011;32377;52.182;5.398;2022-09-09T17:11:28;7.88;;;2.95;;
46651;SDS011;32377;52.182;5.398;2022-09-09T17:13:54;8.68;;;2.75;;